sensor_id;sensor_type;location;lat;lon;timestamp;temperature;humidity
49489;SHT31;35382;51.484;11.476;2022-12-18T00:00:11;-11.39;97.25
49489;SHT31;35382;51.484;11.476;2022-12-18T00:01:58;-11.33;97.19
49489;SHT31;35382;51.484;11.476;2022-12-18T00:03:40;-11.19;98.20
49489;SHT31;35382;51.484;11.476;2022-12-18T00:05:21;-11.05;97.91
49489;SHT31;35382;51.484;11.476;2022-12-18T00:07:02;-11.01;98.12
49489;SHT31;35382;51.484;11.476;2022-12-18T00:08:44;-10.99;97.68
49489;SHT31;35382;51.484;11.476;2022-12-18T00:10:28;-11.08;96.84
49489;SHT31;35382;51.484;11.476;2022-12-18T00:12:09;-11.32;96.11
49489;SHT31;35382;51.484;11.476;2022-12-18T00:13:54;-11.43;95.66
49489;SHT31;35382;51.484;11.476;2022-12-18T00:15:36;-11.46;97.28
49489;SHT31;35382;51.484;11.476;2022-12-18T00:17:17;-11.35;98.53
49489;SHT31;35382;51.484;11.476;2022-12-18T00:18:59;-11.20;99.04
49489;SHT31;35382;51.484;11.476;2022-12-18T00:20:41;-11.22;98.78
49489;SHT31;35382;51.484;11.476;2022-12-18T00:22:22;-10.98;98.35
49489;SHT31;35382;51.484;11.476;2022-12-18T00:24:03;-11.03;97.85
49489;SHT31;35382;51.484;11.476;2022-12-18T00:25:45;-11.03;97.95
49489;SHT31;35382;51.484;11.476;2022-12-18T00:27:26;-11.09;98.04
49489;SHT31;35382;51.484;11.476;2022-12-18T00:29:12;-11.14;97.85
49489;SHT31;35382;51.484;11.476;2022-12-18T00:31:13;-11.59;96.06
49489;SHT31;35382;51.484;11.476;2022-12-18T00:32:54;-11.78;95.09
49489;SHT31;35382;51.484;11.476;2022-12-18T00:34:36;-11.91;95.62
49489;SHT31;35382;51.484;11.476;2022-12-18T00:36:19;-12.10;95.08
49489;SHT31;35382;51.484;11.476;2022-12-18T00:38:01;-12.18;94.62
49489;SHT31;35382;51.484;11.476;2022-12-18T00:39:42;-12.29;94.58
49489;SHT31;35382;51.484;11.476;2022-12-18T00:41:24;-12.34;95.88
49489;SHT31;35382;51.484;11.476;2022-12-18T00:43:24;-12.45;96.16
49489;SHT31;35382;51.484;11.476;2022-12-18T00:45:07;-12.42;96.22
49489;SHT31;35382;51.484;11.476;2022-12-18T00:46:49;-12.32;96.83
49489;SHT31;35382;51.484;11.476;2022-12-18T00:48:31;-12.34;96.92
49489;SHT31;35382;51.484;11.476;2022-12-18T00:50:12;-12.27;96.76
49489;SHT31;35382;51.484;11.476;2022-12-18T00:51:55;-12.35;96.02
49489;SHT31;35382;51.484;11.476;2022-12-18T00:53:37;-12.51;95.28
49489;SHT31;35382;51.484;11.476;2022-12-18T00:55:18;-12.59;94.86
49489;SHT31;35382;51.484;11.476;2022-12-18T00:57:01;-12.61;95.12
49489;SHT31;35382;51.484;11.476;2022-12-18T00:58:43;-12.51;95.37
49489;SHT31;35382;51.484;11.476;2022-12-18T01:00:25;-12.58;94.93
49489;SHT31;35382;51.484;11.476;2022-12-18T01:02:06;-12.66;95.75
49489;SHT31;35382;51.484;11.476;2022-12-18T01:03:48;-12.72;96.26
49489;SHT31;35382;51.484;11.476;2022-12-18T01:05:31;-12.66;97.42
49489;SHT31;35382;51.484;11.476;2022-12-18T01:07:12;-12.41;98.78
49489;SHT31;35382;51.484;11.476;2022-12-18T01:08:54;-12.14;99.34
49489;SHT31;35382;51.484;11.476;2022-12-18T01:10:35;-11.98;99.99
49489;SHT31;35382;51.484;11.476;2022-12-18T01:12:20;-11.95;99.99
49489;SHT31;35382;51.484;11.476;2022-12-18T01:14:05;-11.80;99.99
49489;SHT31;35382;51.484;11.476;2022-12-18T01:15:50;-11.85;99.51
49489;SHT31;35382;51.484;11.476;2022-12-18T01:17:32;-12.04;97.28
49489;SHT31;35382;51.484;11.476;2022-12-18T01:19:15;-12.15;96.92
49489;SHT31;35382;51.484;11.476;2022-12-18T01:20:56;-12.15;97.78
49489;SHT31;35382;51.484;11.476;2022-12-18T01:22:38;-12.15;97.42
49489;SHT31;35382;51.484;11.476;2022-12-18T01:24:22;-12.10;97.18
49489;SHT31;35382;51.484;11.476;2022-12-18T01:26:05;-11.93;98.31
49489;SHT31;35382;51.484;11.476;2022-12-18T01:27:49;-11.77;98.60
49489;SHT31;35382;51.484;11.476;2022-12-18T01:29:30;-11.56;98.68
49489;SHT31;35382;51.484;11.476;2022-12-18T01:31:32;-11.42;98.97
49489;SHT31;35382;51.484;11.476;2022-12-18T01:33:16;-11.47;99.99
49489;SHT31;35382;51.484;11.476;2022-12-18T01:34:58;-11.50;99.99
49489;SHT31;35382;51.484;11.476;2022-12-18T01:36:41;-11.53;99.99
49489;SHT31;35382;51.484;11.476;2022-12-18T01:38:23;-11.53;99.99
49489;SHT31;35382;51.484;11.476;2022-12-18T01:40:05;-11.30;99.99
49489;SHT31;35382;51.484;11.476;2022-12-18T01:41:47;-11.37;99.99
49489;SHT31;35382;51.484;11.476;2022-12-18T01:43:54;-11.35;99.99
49489;SHT31;35382;51.484;11.476;2022-12-18T01:45:36;-11.27;99.61
49489;SHT31;35382;51.484;11.476;2022-12-18T01:47:39;-11.29;98.65
49489;SHT31;35382;51.484;11.476;2022-12-18T01:49:22;-11.27;98.01
49489;SHT31;35382;51.484;11.476;2022-12-18T01:51:04;-11.27;97.86
49489;SHT31;35382;51.484;11.476;2022-12-18T01:52:53;-11.25;98.17
49489;SHT31;35382;51.484;11.476;2022-12-18T01:54:34;-11.19;98.18
49489;SHT31;35382;51.484;11.476;2022-12-18T01:56:20;-11.22;97.51
49489;SHT31;35382;51.484;11.476;2022-12-18T01:58:04;-11.23;97.76
49489;SHT31;35382;51.484;11.476;2022-12-18T01:59:47;-11.15;98.57
49489;SHT31;35382;51.484;11.476;2022-12-18T02:01:32;-11.03;98.58
49489;SHT31;35382;51.484;11.476;2022-12-18T02:03:16;-10.98;98.82
49489;SHT31;35382;51.484;11.476;2022-12-18T02:05:00;-10.82;98.78
49489;SHT31;35382;51.484;11.476;2022-12-18T02:06:42;-10.91;99.04
49489;SHT31;35382;51.484;11.476;2022-12-18T02:08:35;-10.96;99.70
49489;SHT31;35382;51.484;11.476;2022-12-18T02:10:24;-10.92;99.99
49489;SHT31;35382;51.484;11.476;2022-12-18T02:12:16;-10.78;99.99
49489;SHT31;35382;51.484;11.476;2022-12-18T02:14:04;-10.55;99.99
49489;SHT31;35382;51.484;11.476;2022-12-18T02:17:47;-10.44;99.99
49489;SHT31;35382;51.484;11.476;2022-12-18T02:21:56;-10.42;99.99
49489;SHT31;35382;51.484;11.476;2022-12-18T02:26:27;-10.23;99.98
49489;SHT31;35382;51.484;11.476;2022-12-18T02:28:13;-10.09;99.54
49489;SHT31;35382;51.484;11.476;2022-12-18T02:29:57;-9.89;99.16
49489;SHT31;35382;51.484;11.476;2022-12-18T02:31:47;-9.96;98.69
49489;SHT31;35382;51.484;11.476;2022-12-18T02:33:30;-10.07;98.47
49489;SHT31;35382;51.484;11.476;2022-12-18T02:35:19;-10.20;98.22
49489;SHT31;35382;51.484;11.476;2022-12-18T02:37:07;-10.33;98.44
49489;SHT31;35382;51.484;11.476;2022-12-18T02:38:53;-10.45;98.69
49489;SHT31;35382;51.484;11.476;2022-12-18T02:40:37;-10.45;98.83
49489;SHT31;35382;51.484;11.476;2022-12-18T02:42:20;-10.40;98.77
49489;SHT31;35382;51.484;11.476;2022-12-18T02:44:08;-10.49;98.79
49489;SHT31;35382;51.484;11.476;2022-12-18T02:45:55;-10.34;98.81
49489;SHT31;35382;51.484;11.476;2022-12-18T02:47:40;-10.37;98.78
49489;SHT31;35382;51.484;11.476;2022-12-18T02:51:42;-10.48;98.53
49489;SHT31;35382;51.484;11.476;2022-12-18T02:53:45;-10.65;98.85
49489;SHT31;35382;51.484;11.476;2022-12-18T02:55:58;-10.54;98.93
49489;SHT31;35382;51.484;11.476;2022-12-18T03:00:08;-10.72;99.79
49489;SHT31;35382;51.484;11.476;2022-12-18T03:02:03;-10.81;99.80
49489;SHT31;35382;51.484;11.476;2022-12-18T03:03:55;-10.81;99.99
49489;SHT31;35382;51.484;11.476;2022-12-18T03:07:56;-10.86;99.99
49489;SHT31;35382;51.484;11.476;2022-12-18T03:09:43;-10.88;99.99
49489;SHT31;35382;51.484;11.476;2022-12-18T03:11:31;-11.02;99.99
49489;SHT31;35382;51.484;11.476;2022-12-18T03:15:48;-11.29;99.99
49489;SHT31;35382;51.484;11.476;2022-12-18T03:17:32;-11.50;99.99
49489;SHT31;35382;51.484;11.476;2022-12-18T03:19:17;-11.54;99.99
49489;SHT31;35382;51.484;11.476;2022-12-18T03:21:02;-11.69;99.99
49489;SHT31;35382;51.484;11.476;2022-12-18T03:22:51;-11.78;99.99
49489;SHT31;35382;51.484;11.476;2022-12-18T03:24:36;-11.93;99.12
49489;SHT31;35382;51.484;11.476;2022-12-18T03:26:24;-11.95;98.50
49489;SHT31;35382;51.484;11.476;2022-12-18T03:28:15;-11.93;98.00
49489;SHT31;35382;51.484;11.476;2022-12-18T03:30:10;-12.22;96.91
49489;SHT31;35382;51.484;11.476;2022-12-18T03:31:56;-12.25;97.09
49489;SHT31;35382;51.484;11.476;2022-12-18T03:33:51;-12.18;97.44
49489;SHT31;35382;51.484;11.476;2022-12-18T03:35:36;-12.31;96.97
49489;SHT31;35382;51.484;11.476;2022-12-18T03:37:19;-12.44;96.93
49489;SHT31;35382;51.484;11.476;2022-12-18T03:39:02;-12.37;96.98
49489;SHT31;35382;51.484;11.476;2022-12-18T03:43:43;-12.61;95.57
49489;SHT31;35382;51.484;11.476;2022-12-18T03:45:34;-12.69;95.91
49489;SHT31;35382;51.484;11.476;2022-12-18T03:47:39;-12.77;95.82
49489;SHT31;35382;51.484;11.476;2022-12-18T03:49:33;-12.79;95.20
49489;SHT31;35382;51.484;11.476;2022-12-18T03:51:35;-12.90;94.99
49489;SHT31;35382;51.484;11.476;2022-12-18T03:55:29;-13.31;94.54
49489;SHT31;35382;51.484;11.476;2022-12-18T03:57:20;-13.37;94.55
49489;SHT31;35382;51.484;11.476;2022-12-18T03:59:05;-13.57;94.27
49489;SHT31;35382;51.484;11.476;2022-12-18T04:00:50;-13.64;94.54
49489;SHT31;35382;51.484;11.476;2022-12-18T04:02:34;-13.55;94.31
49489;SHT31;35382;51.484;11.476;2022-12-18T04:04:17;-13.79;93.59
49489;SHT31;35382;51.484;11.476;2022-12-18T04:06:00;-13.99;94.55
49489;SHT31;35382;51.484;11.476;2022-12-18T04:07:44;-14.13;95.00
49489;SHT31;35382;51.484;11.476;2022-12-18T04:09:26;-14.26;95.21
49489;SHT31;35382;51.484;11.476;2022-12-18T04:11:08;-14.46;94.78
49489;SHT31;35382;51.484;11.476;2022-12-18T04:12:50;-14.59;94.69
49489;SHT31;35382;51.484;11.476;2022-12-18T04:14:31;-14.61;95.53
49489;SHT31;35382;51.484;11.476;2022-12-18T04:16:18;-14.50;96.48
49489;SHT31;35382;51.484;11.476;2022-12-18T04:18:01;-14.46;96.29
49489;SHT31;35382;51.484;11.476;2022-12-18T04:19:50;-14.37;97.02
49489;SHT31;35382;51.484;11.476;2022-12-18T04:21:32;-14.23;97.18
49489;SHT31;35382;51.484;11.476;2022-12-18T04:23:13;-14.18;97.04
49489;SHT31;35382;51.484;11.476;2022-12-18T04:24:55;-14.22;96.78
49489;SHT31;35382;51.484;11.476;2022-12-18T04:26:44;-14.21;95.85
49489;SHT31;35382;51.484;11.476;2022-12-18T04:28:32;-14.22;96.19
49489;SHT31;35382;51.484;11.476;2022-12-18T04:30:14;-14.29;98.04
49489;SHT31;35382;51.484;11.476;2022-12-18T04:31:56;-14.21;99.78
49489;SHT31;35382;51.484;11.476;2022-12-18T04:33:39;-14.30;98.91
49489;SHT31;35382;51.484;11.476;2022-12-18T04:35:21;-14.36;98.89
49489;SHT31;35382;51.484;11.476;2022-12-18T04:37:02;-14.33;98.51
49489;SHT31;35382;51.484;11.476;2022-12-18T04:38:44;-14.49;97.56
49489;SHT31;35382;51.484;11.476;2022-12-18T04:40:29;-14.40;97.55
49489;SHT31;35382;51.484;11.476;2022-12-18T04:42:11;-14.37;97.28
49489;SHT31;35382;51.484;11.476;2022-12-18T04:43:52;-14.22;97.18
49489;SHT31;35382;51.484;11.476;2022-12-18T04:45:34;-14.30;96.05
49489;SHT31;35382;51.484;11.476;2022-12-18T04:47:15;-14.33;95.20
49489;SHT31;35382;51.484;11.476;2022-12-18T04:48:56;-14.33;94.37
49489;SHT31;35382;51.484;11.476;2022-12-18T04:50:38;-14.30;94.31
49489;SHT31;35382;51.484;11.476;2022-12-18T04:52:19;-14.26;94.88
49489;SHT31;35382;51.484;11.476;2022-12-18T04:54:00;-14.26;95.45
49489;SHT31;35382;51.484;11.476;2022-12-18T04:55:42;-14.12;95.37
49489;SHT31;35382;51.484;11.476;2022-12-18T04:57:23;-14.21;95.20
49489;SHT31;35382;51.484;11.476;2022-12-18T04:59:05;-14.16;95.22
49489;SHT31;35382;51.484;11.476;2022-12-18T05:00:46;-14.08;95.68
49489;SHT31;35382;51.484;11.476;2022-12-18T05:02:27;-13.99;96.32
49489;SHT31;35382;51.484;11.476;2022-12-18T05:04:09;-13.91;96.65
49489;SHT31;35382;51.484;11.476;2022-12-18T05:05:50;-13.81;96.90
49489;SHT31;35382;51.484;11.476;2022-12-18T05:07:32;-13.77;96.80
49489;SHT31;35382;51.484;11.476;2022-12-18T05:09:13;-13.74;96.76
49489;SHT31;35382;51.484;11.476;2022-12-18T05:11:05;-13.65;96.55
49489;SHT31;35382;51.484;11.476;2022-12-18T05:12:47;-13.59;95.91
49489;SHT31;35382;51.484;11.476;2022-12-18T05:14:40;-13.37;95.36
49489;SHT31;35382;51.484;11.476;2022-12-18T05:16:22;-13.17;95.66
49489;SHT31;35382;51.484;11.476;2022-12-18T05:18:03;-13.11;96.04
49489;SHT31;35382;51.484;11.476;2022-12-18T05:19:45;-13.09;96.47
49489;SHT31;35382;51.484;11.476;2022-12-18T05:21:26;-13.20;97.35
49489;SHT31;35382;51.484;11.476;2022-12-18T05:23:08;-13.30;97.95
49489;SHT31;35382;51.484;11.476;2022-12-18T05:24:49;-13.45;98.46
49489;SHT31;35382;51.484;11.476;2022-12-18T05:26:30;-13.51;99.05
49489;SHT31;35382;51.484;11.476;2022-12-18T05:28:12;-13.41;98.15
49489;SHT31;35382;51.484;11.476;2022-12-18T05:29:53;-13.35;96.65
49489;SHT31;35382;51.484;11.476;2022-12-18T05:31:34;-13.50;96.08
49489;SHT31;35382;51.484;11.476;2022-12-18T05:33:17;-13.54;95.72
49489;SHT31;35382;51.484;11.476;2022-12-18T05:34:58;-13.44;95.44
49489;SHT31;35382;51.484;11.476;2022-12-18T05:36:39;-13.44;95.72
49489;SHT31;35382;51.484;11.476;2022-12-18T05:38:22;-13.41;95.70
49489;SHT31;35382;51.484;11.476;2022-12-18T05:40:04;-13.37;96.45
49489;SHT31;35382;51.484;11.476;2022-12-18T05:41:45;-13.47;97.79
49489;SHT31;35382;51.484;11.476;2022-12-18T05:43:29;-13.23;98.52
49489;SHT31;35382;51.484;11.476;2022-12-18T05:45:10;-12.97;98.23
49489;SHT31;35382;51.484;11.476;2022-12-18T05:46:52;-12.89;97.62
49489;SHT31;35382;51.484;11.476;2022-12-18T05:48:33;-12.87;97.44
49489;SHT31;35382;51.484;11.476;2022-12-18T05:50:15;-12.85;97.83
49489;SHT31;35382;51.484;11.476;2022-12-18T05:51:56;-12.87;97.80
49489;SHT31;35382;51.484;11.476;2022-12-18T05:53:38;-12.89;97.54
49489;SHT31;35382;51.484;11.476;2022-12-18T05:55:19;-12.90;97.61
49489;SHT31;35382;51.484;11.476;2022-12-18T05:57:01;-13.07;97.89
49489;SHT31;35382;51.484;11.476;2022-12-18T05:58:42;-13.09;98.60
49489;SHT31;35382;51.484;11.476;2022-12-18T06:00:24;-12.89;98.82
49489;SHT31;35382;51.484;11.476;2022-12-18T06:02:05;-12.80;98.61
49489;SHT31;35382;51.484;11.476;2022-12-18T06:03:46;-12.83;99.11
49489;SHT31;35382;51.484;11.476;2022-12-18T06:05:28;-12.68;98.89
49489;SHT31;35382;51.484;11.476;2022-12-18T06:07:09;-12.61;98.62
49489;SHT31;35382;51.484;11.476;2022-12-18T06:08:52;-12.85;98.35
49489;SHT31;35382;51.484;11.476;2022-12-18T06:10:33;-12.69;98.63
49489;SHT31;35382;51.484;11.476;2022-12-18T06:12:15;-12.61;98.33
49489;SHT31;35382;51.484;11.476;2022-12-18T06:13:56;-12.76;97.68
49489;SHT31;35382;51.484;11.476;2022-12-18T06:15:38;-12.82;97.65
49489;SHT31;35382;51.484;11.476;2022-12-18T06:17:19;-12.93;97.48
49489;SHT31;35382;51.484;11.476;2022-12-18T06:19:03;-12.92;97.70
49489;SHT31;35382;51.484;11.476;2022-12-18T06:20:54;-12.92;97.62
49489;SHT31;35382;51.484;11.476;2022-12-18T06:22:35;-13.13;97.97
49489;SHT31;35382;51.484;11.476;2022-12-18T06:24:17;-13.09;98.44
49489;SHT31;35382;51.484;11.476;2022-12-18T06:25:58;-13.07;98.37
49489;SHT31;35382;51.484;11.476;2022-12-18T06:27:43;-13.01;98.17
49489;SHT31;35382;51.484;11.476;2022-12-18T06:29:25;-12.82;97.91
49489;SHT31;35382;51.484;11.476;2022-12-18T06:31:07;-12.75;97.68
49489;SHT31;35382;51.484;11.476;2022-12-18T06:32:49;-12.63;97.66
49489;SHT31;35382;51.484;11.476;2022-12-18T06:34:30;-12.61;97.29
49489;SHT31;35382;51.484;11.476;2022-12-18T06:36:12;-12.38;96.99
49489;SHT31;35382;51.484;11.476;2022-12-18T06:37:54;-12.46;96.40
49489;SHT31;35382;51.484;11.476;2022-12-18T06:39:35;-12.66;96.39
49489;SHT31;35382;51.484;11.476;2022-12-18T06:41:19;-12.92;96.77
49489;SHT31;35382;51.484;11.476;2022-12-18T06:43:01;-12.97;97.50
49489;SHT31;35382;51.484;11.476;2022-12-18T06:44:42;-13.03;97.60
49489;SHT31;35382;51.484;11.476;2022-12-18T06:46:24;-13.13;98.34
49489;SHT31;35382;51.484;11.476;2022-12-18T06:48:05;-13.11;98.20
49489;SHT31;35382;51.484;11.476;2022-12-18T06:49:46;-13.00;97.88
49489;SHT31;35382;51.484;11.476;2022-12-18T06:51:28;-13.06;97.62
49489;SHT31;35382;51.484;11.476;2022-12-18T06:53:09;-13.07;97.67
49489;SHT31;35382;51.484;11.476;2022-12-18T06:54:50;-13.09;97.64
49489;SHT31;35382;51.484;11.476;2022-12-18T06:56:32;-13.09;97.65
49489;SHT31;35382;51.484;11.476;2022-12-18T06:58:13;-13.09;97.54
49489;SHT31;35382;51.484;11.476;2022-12-18T06:59:54;-13.24;97.54
49489;SHT31;35382;51.484;11.476;2022-12-18T07:01:36;-13.33;97.68
49489;SHT31;35382;51.484;11.476;2022-12-18T07:03:17;-13.45;97.85
49489;SHT31;35382;51.484;11.476;2022-12-18T07:04:59;-13.43;97.87
49489;SHT31;35382;51.484;11.476;2022-12-18T07:06:43;-13.54;97.96
49489;SHT31;35382;51.484;11.476;2022-12-18T07:08:25;-13.51;97.80
49489;SHT31;35382;51.484;11.476;2022-12-18T07:10:06;-13.55;97.03
49489;SHT31;35382;51.484;11.476;2022-12-18T07:11:48;-13.54;96.59
49489;SHT31;35382;51.484;11.476;2022-12-18T07:13:29;-13.75;96.10
49489;SHT31;35382;51.484;11.476;2022-12-18T07:15:11;-13.85;95.10
49489;SHT31;35382;51.484;11.476;2022-12-18T07:16:52;-13.92;94.50
49489;SHT31;35382;51.484;11.476;2022-12-18T07:18:34;-14.11;94.25
49489;SHT31;35382;51.484;11.476;2022-12-18T07:20:15;-14.35;94.05
49489;SHT31;35382;51.484;11.476;2022-12-18T07:21:56;-14.57;93.93
49489;SHT31;35382;51.484;11.476;2022-12-18T07:23:38;-14.47;93.77
49489;SHT31;35382;51.484;11.476;2022-12-18T07:25:19;-14.56;93.85
49489;SHT31;35382;51.484;11.476;2022-12-18T07:27:01;-14.64;94.15
49489;SHT31;35382;51.484;11.476;2022-12-18T07:28:42;-14.52;93.78
49489;SHT31;35382;51.484;11.476;2022-12-18T07:30:23;-14.28;93.55
49489;SHT31;35382;51.484;11.476;2022-12-18T07:32:05;-14.25;93.45
49489;SHT31;35382;51.484;11.476;2022-12-18T07:33:48;-14.28;93.67
49489;SHT31;35382;51.484;11.476;2022-12-18T07:35:30;-14.32;93.63
49489;SHT31;35382;51.484;11.476;2022-12-18T07:37:11;-14.33;94.36
49489;SHT31;35382;51.484;11.476;2022-12-18T07:38:53;-14.36;94.94
49489;SHT31;35382;51.484;11.476;2022-12-18T07:40:34;-14.67;95.44
49489;SHT31;35382;51.484;11.476;2022-12-18T07:42:15;-14.77;95.50
49489;SHT31;35382;51.484;11.476;2022-12-18T07:44:12;-14.90;96.05
49489;SHT31;35382;51.484;11.476;2022-12-18T07:45:54;-15.14;95.45
49489;SHT31;35382;51.484;11.476;2022-12-18T07:47:35;-15.15;95.68
49489;SHT31;35382;51.484;11.476;2022-12-18T07:49:17;-15.25;93.42
49489;SHT31;35382;51.484;11.476;2022-12-18T07:51:03;-15.39;92.78
49489;SHT31;35382;51.484;11.476;2022-12-18T07:52:45;-15.49;92.66
49489;SHT31;35382;51.484;11.476;2022-12-18T07:54:27;-15.53;93.06
49489;SHT31;35382;51.484;11.476;2022-12-18T07:56:10;-15.58;93.71
49489;SHT31;35382;51.484;11.476;2022-12-18T07:57:52;-15.46;93.45
49489;SHT31;35382;51.484;11.476;2022-12-18T07:59:33;-15.29;93.62
49489;SHT31;35382;51.484;11.476;2022-12-18T08:01:15;-15.04;93.63
49489;SHT31;35382;51.484;11.476;2022-12-18T08:02:57;-14.93;93.78
49489;SHT31;35382;51.484;11.476;2022-12-18T08:04:39;-14.45;93.70
49489;SHT31;35382;51.484;11.476;2022-12-18T08:06:20;-13.99;93.42
49489;SHT31;35382;51.484;11.476;2022-12-18T08:08:01;-13.72;92.73
49489;SHT31;35382;51.484;11.476;2022-12-18T08:09:42;-13.55;92.26
49489;SHT31;35382;51.484;11.476;2022-12-18T08:11:26;-13.59;91.39
49489;SHT31;35382;51.484;11.476;2022-12-18T08:13:07;-13.27;91.41
49489;SHT31;35382;51.484;11.476;2022-12-18T08:14:48;-12.99;91.50
49489;SHT31;35382;51.484;11.476;2022-12-18T08:16:30;-12.99;90.98
49489;SHT31;35382;51.484;11.476;2022-12-18T08:18:11;-12.76;90.75
49489;SHT31;35382;51.484;11.476;2022-12-18T08:19:52;-12.44;90.75
49489;SHT31;35382;51.484;11.476;2022-12-18T08:21:34;-12.28;90.01
49489;SHT31;35382;51.484;11.476;2022-12-18T08:23:15;-12.35;89.51
49489;SHT31;35382;51.484;11.476;2022-12-18T08:24:57;-12.18;89.24
49489;SHT31;35382;51.484;11.476;2022-12-18T08:26:38;-12.34;88.75
49489;SHT31;35382;51.484;11.476;2022-12-18T08:28:20;-12.29;88.76
49489;SHT31;35382;51.484;11.476;2022-12-18T08:30:02;-12.08;88.65
49489;SHT31;35382;51.484;11.476;2022-12-18T08:31:44;-12.22;88.15
49489;SHT31;35382;51.484;11.476;2022-12-18T08:33:25;-12.21;88.27
49489;SHT31;35382;51.484;11.476;2022-12-18T08:35:07;-12.18;88.27
49489;SHT31;35382;51.484;11.476;2022-12-18T08:36:49;-12.39;88.04
49489;SHT31;35382;51.484;11.476;2022-12-18T08:38:33;-12.49;88.50
49489;SHT31;35382;51.484;11.476;2022-12-18T08:40:15;-12.41;88.53
49489;SHT31;35382;51.484;11.476;2022-12-18T08:41:56;-12.27;88.49
49489;SHT31;35382;51.484;11.476;2022-12-18T08:43:56;-12.14;88.43
49489;SHT31;35382;51.484;11.476;2022-12-18T08:45:56;-11.88;87.68
49489;SHT31;35382;51.484;11.476;2022-12-18T08:47:37;-11.97;87.12
49489;SHT31;35382;51.484;11.476;2022-12-18T08:49:19;-12.24;87.69
49489;SHT31;35382;51.484;11.476;2022-12-18T08:51:00;-12.46;88.42
49489;SHT31;35382;51.484;11.476;2022-12-18T08:52:41;-12.68;89.72
49489;SHT31;35382;51.484;11.476;2022-12-18T08:54:23;-12.63;90.24
49489;SHT31;35382;51.484;11.476;2022-12-18T08:56:05;-12.31;89.91
49489;SHT31;35382;51.484;11.476;2022-12-18T08:57:49;-12.24;89.29
49489;SHT31;35382;51.484;11.476;2022-12-18T08:59:31;-12.14;89.19
49489;SHT31;35382;51.484;11.476;2022-12-18T09:01:12;-11.67;88.63
49489;SHT31;35382;51.484;11.476;2022-12-18T09:02:54;-11.71;87.59
49489;SHT31;35382;51.484;11.476;2022-12-18T09:04:36;-11.84;87.64
49489;SHT31;35382;51.484;11.476;2022-12-18T09:06:19;-12.13;88.52
49489;SHT31;35382;51.484;11.476;2022-12-18T09:08:00;-12.15;88.72
49489;SHT31;35382;51.484;11.476;2022-12-18T09:09:42;-12.07;88.88
49489;SHT31;35382;51.484;11.476;2022-12-18T09:11:26;-12.17;89.47
49489;SHT31;35382;51.484;11.476;2022-12-18T09:13:07;-12.08;89.16
49489;SHT31;35382;51.484;11.476;2022-12-18T09:14:49;-11.71;89.03
49489;SHT31;35382;51.484;11.476;2022-12-18T09:16:31;-11.70;88.26
49489;SHT31;35382;51.484;11.476;2022-12-18T09:18:13;-11.43;87.93
49489;SHT31;35382;51.484;11.476;2022-12-18T09:19:55;-11.60;87.63
49489;SHT31;35382;51.484;11.476;2022-12-18T09:21:37;-11.46;87.72
49489;SHT31;35382;51.484;11.476;2022-12-18T09:23:20;-11.37;87.93
49489;SHT31;35382;51.484;11.476;2022-12-18T09:25:05;-11.26;87.82
49489;SHT31;35382;51.484;11.476;2022-12-18T09:26:53;-10.92;87.55
49489;SHT31;35382;51.484;11.476;2022-12-18T09:28:36;-11.01;87.25
49489;SHT31;35382;51.484;11.476;2022-12-18T09:30:17;-10.61;87.26
49489;SHT31;35382;51.484;11.476;2022-12-18T09:31:58;-10.51;87.00
49489;SHT31;35382;51.484;11.476;2022-12-18T09:33:40;-10.03;86.87
49489;SHT31;35382;51.484;11.476;2022-12-18T09:35:21;-10.00;86.19
49489;SHT31;35382;51.484;11.476;2022-12-18T09:37:03;-9.91;85.83
49489;SHT31;35382;51.484;11.476;2022-12-18T09:38:44;-9.76;84.55
49489;SHT31;35382;51.484;11.476;2022-12-18T09:40:36;-10.42;84.85
49489;SHT31;35382;51.484;11.476;2022-12-18T09:42:22;-10.21;85.61
49489;SHT31;35382;51.484;11.476;2022-12-18T09:44:53;-10.47;85.78
49489;SHT31;35382;51.484;11.476;2022-12-18T09:46:34;-10.28;85.42
49489;SHT31;35382;51.484;11.476;2022-12-18T09:48:31;-9.74;85.18
49489;SHT31;35382;51.484;11.476;2022-12-18T09:50:33;-9.60;84.74
49489;SHT31;35382;51.484;11.476;2022-12-18T09:52:21;-10.18;85.22
49489;SHT31;35382;51.484;11.476;2022-12-18T09:54:09;-9.60;85.89
49489;SHT31;35382;51.484;11.476;2022-12-18T09:55:52;-9.45;85.41
49489;SHT31;35382;51.484;11.476;2022-12-18T09:57:40;-9.23;85.37
49489;SHT31;35382;51.484;11.476;2022-12-18T09:59:29;-8.87;84.42
49489;SHT31;35382;51.484;11.476;2022-12-18T10:01:14;-8.89;82.98
49489;SHT31;35382;51.484;11.476;2022-12-18T10:03:03;-9.43;82.87
49489;SHT31;35382;51.484;11.476;2022-12-18T10:05:03;-9.87;84.23
49489;SHT31;35382;51.484;11.476;2022-12-18T10:07:07;-9.93;85.42
49489;SHT31;35382;51.484;11.476;2022-12-18T10:10:53;-9.73;85.40
49489;SHT31;35382;51.484;11.476;2022-12-18T10:12:55;-9.57;84.95
49489;SHT31;35382;51.484;11.476;2022-12-18T10:16:53;-9.67;85.19
49489;SHT31;35382;51.484;11.476;2022-12-18T10:20:55;-9.05;83.78
49489;SHT31;35382;51.484;11.476;2022-12-18T10:22:48;-8.85;82.60
49489;SHT31;35382;51.484;11.476;2022-12-18T10:26:44;-9.29;83.67
49489;SHT31;35382;51.484;11.476;2022-12-18T10:28:26;-9.66;83.48
49489;SHT31;35382;51.484;11.476;2022-12-18T10:30:15;-9.76;85.34
49489;SHT31;35382;51.484;11.476;2022-12-18T10:31:57;-10.03;85.55
49489;SHT31;35382;51.484;11.476;2022-12-18T10:33:38;-9.93;86.00
49489;SHT31;35382;51.484;11.476;2022-12-18T10:35:23;-9.77;86.40
49489;SHT31;35382;51.484;11.476;2022-12-18T10:37:11;-9.21;85.42
49489;SHT31;35382;51.484;11.476;2022-12-18T10:39:21;-9.49;84.77
49489;SHT31;35382;51.484;11.476;2022-12-18T10:43:13;-9.39;85.75
49489;SHT31;35382;51.484;11.476;2022-12-18T10:45:08;-9.43;86.43
49489;SHT31;35382;51.484;11.476;2022-12-18T10:46:55;-9.25;86.78
49489;SHT31;35382;51.484;11.476;2022-12-18T10:50:34;-8.78;86.09
49489;SHT31;35382;51.484;11.476;2022-12-18T10:52:21;-8.76;86.74
49489;SHT31;35382;51.484;11.476;2022-12-18T10:55:58;-8.51;87.40
49489;SHT31;35382;51.484;11.476;2022-12-18T10:57:39;-8.29;87.45
49489;SHT31;35382;51.484;11.476;2022-12-18T10:59:22;-7.85;86.42
49489;SHT31;35382;51.484;11.476;2022-12-18T11:01:15;-7.83;86.24
49489;SHT31;35382;51.484;11.476;2022-12-18T11:02:57;-7.93;86.64
49489;SHT31;35382;51.484;11.476;2022-12-18T11:04:51;-7.49;86.09
49489;SHT31;35382;51.484;11.476;2022-12-18T11:06:33;-7.22;84.66
49489;SHT31;35382;51.484;11.476;2022-12-18T11:08:21;-6.97;84.21
49489;SHT31;35382;51.484;11.476;2022-12-18T11:10:04;-6.67;83.52
49489;SHT31;35382;51.484;11.476;2022-12-18T11:11:51;-6.53;83.14
49489;SHT31;35382;51.484;11.476;2022-12-18T11:13:34;-6.09;82.03
49489;SHT31;35382;51.484;11.476;2022-12-18T11:15:21;-5.98;82.87